Observations for BOLOGNA BORGO AFB, Italy (LIPE)

LIPE 260450Z 22004KT CAVOK 20/18 Q1018  
LIPE 260420Z 24004KT CAVOK 20/18 Q1017  
LIPE 260350Z 28003KT CAVOK 20/18 Q1017  
LIPE 260320Z 22003KT CAVOK 21/18 Q1017  
LIPE 260250Z 22005KT CAVOK 21/18 Q1017  
LIPE 260220Z 24003KT 200V290 CAVOK 21/18 Q1017  
LIPE 260150Z 24003KT CAVOK 21/19 Q1017  
LIPE 260120Z 21005KT CAVOK 22/19 Q1017  
LIPE 260050Z 22005KT CAVOK 22/19 Q1017  
LIPE 260020Z 23003KT CAVOK 22/19 Q1017  
LIPE 252350Z 22004KT CAVOK 22/19 Q1017  
LIPE 252320Z 23003KT CAVOK 22/19 Q1017  
LIPE 252250Z 22004KT CAVOK 23/19 Q1017  
LIPE 252220Z 21004KT CAVOK 23/19 Q1017  
LIPE 252150Z 22005KT CAVOK 23/19 Q1017  
LIPE 252120Z 23003KT CAVOK 24/19 Q1017  
LIPE 252050Z 23003KT 190V250 CAVOK 25/20 Q1017  
LIPE 252020Z 26003KT CAVOK 25/20 Q1017  
LIPE 251950Z 11004KT CAVOK 25/20 Q1017  
LIPE 251920Z 11005KT CAVOK 26/20 Q1017  
LIPE 251850Z VRB02KT CAVOK 26/20 Q1017  
LIPE 251820Z 36002KT CAVOK 28/19 Q1016  
LIPE 251750Z 03002KT CAVOK 29/18 Q1016  
LIPE 251720Z 36003KT 320V030 CAVOK 29/18 Q1016  
LIPE 251650Z VRB02KT CAVOK 30/18 Q1016  
LIPE 251620Z VRB02KT 9999 FEW050 30/18 Q1016
LIPE 251550Z 33003KT 250V360 9999 FEW050 30/18 Q1016
LIPE 251520Z 05005KT 330V090 9999 FEW050 30/18 Q1016
LIPE 251450Z 24003KT 190V350 9999 FEW050 30/18 Q1016
LIPE 251420Z VRB04KT 9999 FEW050 30/19 Q1016
LIPE 251350Z VRB04KT CAVOK 30/19 Q1016  
LIPE 251320Z 03005KT 340V100 CAVOK 30/19 Q1016  
LIPE 251250Z VRB04KT CAVOK 29/18 Q1017  
LIPE 251220Z 09005KT 050V130 CAVOK 29/19 Q1017  
LIPE 251150Z VRB04KT CAVOK 28/18 Q1017  
LIPE 251120Z 04004KT 340V110 CAVOK 28/19 Q1017  
LIPE 251050Z VRB03KT CAVOK 28/19 Q1018  
LIPE 251020Z VRB03KT CAVOK 27/19 Q1018  
LIPE 250950Z 29004KT 250V340 CAVOK 26/20 Q1018  
LIPE 250920Z 31003KT 240V010 CAVOK 25/20 Q1018  
LIPE 250850Z 30004KT 260V340 CAVOK 24/20 Q1018  
LIPE 250820Z 29004KT 260V330 CAVOK 24/20 Q1018  
LIPE 250750Z 28003KT 230V310 CAVOK 23/20 Q1018  
LIPE 250720Z 27003KT 240V310 8000 NSC 23/20 Q1018   
LIPE 250650Z 25003KT 210V290 CAVOK 22/20 Q1018  
LIPE 250620Z 24003KT 200V290 CAVOK 21/19 Q1018  
LIPE 250550Z VRB02KT CAVOK 20/19 Q1018  
LIPE 250520Z 21005KT CAVOK 20/18 Q1017  
LIPE 250450Z 22005KT CAVOK 20/19 Q1018  
LIPE 250420Z 22004KT 9999 FEW070 20/19 Q1017